Time;durP1;ratioP1;P1;durP2;ratioP2;P2;SDS_P1;SDS_P2;PMS_P1;PMS_P2;Temp;Humidity;BMP_temperature;BMP_pressure;BME280_temperature;BME280_humidity;BME280_pressure;Samples;Min_cycle;Max_cycle;Signal;HPM_P1;HPM_P2
2020/12/05 00:00:50;;;;;;;3.05;1.50;;;3.30;86.80;;;;;;2047849;28;20090;-81
2020/12/05 00:01:51;;;;;;;3.40;1.65;;;3.40;86.80;;;;;;2056427;28;20030;-81
2020/12/05 00:02:52;;;;;;;3.45;1.60;;;3.40;86.80;;;;;;2069885;28;20022;-81
2020/12/05 00:03:52;;;;;;;3.75;1.77;;;3.40;86.80;;;;;;2064243;28;20354;-81
2020/12/05 00:04:53;;;;;;;3.60;1.65;;;3.40;86.80;;;;;;2063905;28;20110;-81
2020/12/05 00:05:54;;;;;;;4.10;1.65;;;3.40;86.80;;;;;;2065084;28;20081;-81
2020/12/05 00:06:54;;;;;;;4.40;1.75;;;3.40;86.80;;;;;;2064269;28;20109;-81
2020/12/05 00:07:55;;;;;;;3.30;1.60;;;3.40;86.80;;;;;;2064467;28;20096;-81
2020/12/05 00:08:55;;;;;;;3.13;1.83;;;3.40;86.70;;;;;;2064509;28;20062;-81
2020/12/05 00:09:56;;;;;;;3.30;1.67;;;3.40;86.70;;;;;;2058721;28;20031;-81
2020/12/05 00:10:57;;;;;;;4.15;1.83;;;3.40;86.70;;;;;;2064525;28;20038;-81
2020/12/05 00:12:00;;;;;;;2.35;1.50;;;3.40;86.70;;;;;;2061741;28;20161;-81
2020/12/05 00:13:01;;;;;;;3.42;1.60;;;3.40;86.80;;;;;;2058311;28;20034;-81
2020/12/05 00:14:02;;;;;;;3.00;1.65;;;3.40;86.80;;;;;;2060880;28;20026;-81
2020/12/05 00:15:04;;;;;;;3.40;1.80;;;3.40;86.80;;;;;;2061987;28;20465;-81
2020/12/05 00:16:04;;;;;;;4.38;1.77;;;3.40;86.90;;;;;;2063242;28;20038;-81
2020/12/05 00:17:05;;;;;;;3.33;1.58;;;3.40;86.80;;;;;;2064214;28;20037;-81
2020/12/05 00:18:06;;;;;;;3.55;1.70;;;3.40;86.80;;;;;;2064922;28;20075;-81
2020/12/05 00:19:06;;;;;;;3.17;1.55;;;3.40;86.90;;;;;;2063990;28;20027;-81
2020/12/05 00:20:07;;;;;;;3.05;1.70;;;3.40;86.90;;;;;;2062112;28;20037;-81
2020/12/05 00:21:07;;;;;;;3.75;1.83;;;3.40;86.90;;;;;;2056683;28;20101;-81
2020/12/05 00:22:08;;;;;;;5.70;2.00;;;3.40;86.90;;;;;;2059640;28;20125;-81
2020/12/05 00:23:09;;;;;;;4.05;1.70;;;3.40;86.80;;;;;;2064999;28;20117;-82
2020/12/05 00:24:10;;;;;;;3.10;1.63;;;3.40;86.80;;;;;;2064556;28;20037;-82
2020/12/05 00:25:10;;;;;;;3.45;1.88;;;3.50;86.90;;;;;;2063883;28;20052;-82
2020/12/05 00:26:18;;;;;;;4.22;1.92;;;3.50;86.90;;;;;;2056777;28;20046;-82
2020/12/05 00:27:20;;;;;;;3.78;1.80;;;3.50;86.90;;;;;;2062631;28;20033;-82
2020/12/05 00:28:21;;;;;;;2.95;1.45;;;3.50;86.90;;;;;;2064340;28;20153;-81
2020/12/05 00:29:22;;;;;;;3.17;1.65;;;3.50;86.80;;;;;;2055941;28;20489;-81
2020/12/05 00:30:28;;;;;;;4.75;1.90;;;3.50;86.80;;;;;;2056071;28;20085;-81
2020/12/05 00:31:28;;;;;;;3.55;1.67;;;3.50;86.90;;;;;;2064212;28;20128;-82
2020/12/05 00:32:29;;;;;;;3.47;1.67;;;3.50;86.90;;;;;;2062824;28;20485;-82
2020/12/05 00:33:30;;;;;;;3.38;1.75;;;3.50;86.90;;;;;;2056316;28;20118;-82
2020/12/05 00:34:30;;;;;;;3.53;1.80;;;3.50;86.90;;;;;;2046910;29;20131;-81
2020/12/05 00:35:31;;;;;;;4.03;1.90;;;3.50;86.90;;;;;;2056341;28;20063;-82
2020/12/05 00:36:32;;;;;;;3.50;1.63;;;3.50;86.90;;;;;;2072500;28;20029;-81
2020/12/05 00:37:32;;;;;;;3.17;1.77;;;3.50;87.00;;;;;;2063933;28;20430;-82
2020/12/05 00:38:33;;;;;;;3.72;1.90;;;3.50;87.00;;;;;;2065806;28;20092;-82
2020/12/05 00:39:33;;;;;;;3.35;1.80;;;3.40;87.00;;;;;;2057874;28;20027;-82
2020/12/05 00:40:34;;;;;;;4.95;1.90;;;3.50;87.00;;;;;;2048783;28;20129;-81
2020/12/05 00:41:35;;;;;;;3.80;1.75;;;3.50;87.00;;;;;;2064651;28;20073;-82
2020/12/05 00:42:35;;;;;;;4.07;1.90;;;3.50;87.00;;;;;;2064336;28;20034;-81
2020/12/05 00:43:37;;;;;;;3.88;1.80;;;3.50;87.00;;;;;;2057572;28;20031;-82
2020/12/05 00:44:37;;;;;;;5.80;2.20;;;3.50;87.00;;;;;;2065009;28;20031;-82
2020/12/05 00:45:38;;;;;;;3.53;2.00;;;3.50;87.00;;;;;;2066108;28;20025;-81
2020/12/05 00:46:41;;;;;;;4.43;2.35;;;3.50;87.00;;;;;;2065123;28;20531;-81
2020/12/05 00:47:42;;;;;;;3.35;1.70;;;3.50;86.90;;;;;;2065892;28;20034;-81
2020/12/05 00:48:43;;;;;;;4.55;2.22;;;3.60;87.00;;;;;;2066491;28;20045;-81
2020/12/05 00:49:44;;;;;;;4.57;2.00;;;3.50;86.90;;;;;;2065047;28;20077;-81
2020/12/05 00:50:44;;;;;;;4.82;2.38;;;3.50;86.90;;;;;;2066563;28;20088;-81
2020/12/05 00:51:48;;;;;;;3.30;1.92;;;3.60;86.90;;;;;;2065675;28;20026;-81
2020/12/05 00:52:49;;;;;;;3.78;2.22;;;3.50;86.80;;;;;;2066177;28;20037;-82
2020/12/05 00:53:49;;;;;;;4.40;2.10;;;3.60;86.80;;;;;;2065935;28;20038;-82
2020/12/05 00:54:50;;;;;;;4.72;2.22;;;3.60;86.80;;;;;;2065839;28;20027;-81
2020/12/05 00:55:51;;;;;;;3.90;2.10;;;3.60;86.80;;;;;;2065577;28;20023;-80
2020/12/05 00:56:52;;;;;;;3.60;1.80;;;3.60;86.80;;;;;;2061160;28;20379;-81
2020/12/05 00:57:53;;;;;;;4.40;2.03;;;3.50;86.70;;;;;;2065766;28;20073;-81
2020/12/05 00:58:53;;;;;;;4.28;1.70;;;3.50;86.80;;;;;;2062115;28;20501;-81
2020/12/05 00:59:54;;;;;;;4.78;1.92;;;3.50;86.90;;;;;;2049722;28;20027;-82
2020/12/05 01:00:55;;;;;;;5.13;2.10;;;3.50;86.90;;;;;;2061655;28;20084;-81
2020/12/05 01:01:56;;;;;;;3.78;1.88;;;3.40;86.80;;;;;;2068503;28;20033;-81
2020/12/05 01:02:57;;;;;;;3.97;1.90;;;3.40;86.90;;;;;;2067810;28;20030;-81
2020/12/05 01:03:57;;;;;;;2.60;1.70;;;3.40;87.00;;;;;;2076478;28;20038;-81
2020/12/05 01:04:58;;;;;;;3.65;1.80;;;3.40;87.10;;;;;;2070217;28;20115;-83
2020/12/05 01:05:59;;;;;;;4.03;1.85;;;3.40;87.20;;;;;;2069945;28;20034;-81
2020/12/05 01:06:59;;;;;;;3.90;2.00;;;3.30;87.20;;;;;;2053591;28;20043;-82
2020/12/05 01:08:01;;;;;;;3.35;1.65;;;3.30;87.30;;;;;;2050318;28;20131;-81
2020/12/05 01:09:03;;;;;;;3.55;1.75;;;3.30;87.40;;;;;;2058608;28;20037;-81
2020/12/05 01:10:05;;;;;;;3.35;1.60;;;3.20;87.40;;;;;;2057969;28;20432;-81
2020/12/05 01:11:13;;;;;;;4.32;2.10;;;3.20;87.50;;;;;;2058370;28;20564;-82
2020/12/05 01:12:14;;;;;;;3.05;1.67;;;3.20;87.70;;;;;;2064696;28;20042;-82
2020/12/05 01:13:15;;;;;;;2.88;1.80;;;3.20;87.70;;;;;;2069790;28;20081;-82
2020/12/05 01:14:15;;;;;;;4.20;1.95;;;3.10;87.60;;;;;;2069307;28;20059;-82
2020/12/05 01:15:16;;;;;;;3.88;1.70;;;3.20;87.70;;;;;;2069454;28;20026;-81
2020/12/05 01:16:18;;;;;;;3.65;1.67;;;3.10;87.70;;;;;;2063761;28;20023;-81
2020/12/05 01:17:25;;;;;;;4.07;1.98;;;3.10;87.70;;;;;;2062701;28;20026;-81
2020/12/05 01:18:26;;;;;;;3.65;1.73;;;3.10;87.70;;;;;;2065579;28;20038;-81
2020/12/05 01:19:27;;;;;;;3.83;1.80;;;3.10;87.80;;;;;;2065555;28;20093;-81
2020/12/05 01:20:27;;;;;;;4.68;1.98;;;3.00;87.70;;;;;;2062848;28;20030;-81
2020/12/05 01:21:28;;;;;;;4.13;2.00;;;3.00;87.80;;;;;;2057547;28;20031;-81
2020/12/05 01:22:28;;;;;;;4.03;1.83;;;3.10;87.90;;;;;;2045964;28;20031;-81
2020/12/05 01:23:30;;;;;;;4.47;2.10;;;3.00;87.80;;;;;;2043053;28;20035;-81
2020/12/05 01:24:31;;;;;;;4.53;2.00;;;3.00;87.90;;;;;;2061936;28;20027;-82
2020/12/05 01:25:31;;;;;;;3.08;1.88;;;3.00;87.90;;;;;;2060925;28;20421;-82
2020/12/05 01:26:32;;;;;;;3.92;1.88;;;3.00;87.90;;;;;;2065587;28;20037;-82
2020/12/05 01:27:33;;;;;;;3.75;1.80;;;3.00;88.00;;;;;;2053993;28;20045;-82
2020/12/05 01:28:34;;;;;;;2.92;1.30;;;3.00;88.00;;;;;;2057673;28;20405;-82
2020/12/05 01:29:35;;;;;;;3.92;1.67;;;2.90;88.00;;;;;;2071565;28;20034;-82
2020/12/05 01:30:35;;;;;;;3.40;1.90;;;2.90;88.00;;;;;;2065388;28;20483;-82
2020/12/05 01:31:36;;;;;;;2.97;1.45;;;2.90;88.10;;;;;;2057645;28;20114;-82
2020/12/05 01:32:37;;;;;;;2.88;1.60;;;3.00;88.20;;;;;;2068383;28;20026;-81
2020/12/05 01:33:38;;;;;;;3.75;1.83;;;2.90;88.10;;;;;;2069806;28;20448;-81
2020/12/05 01:34:39;;;;;;;3.10;1.67;;;2.90;88.10;;;;;;2069182;28;20117;-81
2020/12/05 01:35:40;;;;;;;3.58;1.73;;;2.90;88.10;;;;;;2060916;28;20064;-80
2020/12/05 01:36:46;;;;;;;3.17;1.58;;;2.90;88.20;;;;;;2067147;28;20055;-81
2020/12/05 01:37:47;;;;;;;3.35;1.60;;;2.90;88.80;;;;;;2066525;28;20035;-81
2020/12/05 01:38:47;;;;;;;3.25;1.77;;;2.90;88.20;;;;;;2065052;28;20022;-81
2020/12/05 01:39:48;;;;;;;3.88;1.60;;;2.90;88.20;;;;;;2063833;28;20038;-81
2020/12/05 01:40:57;;;;;;;3.08;1.60;;;2.90;88.20;;;;;;2054945;28;20690;-81
2020/12/05 01:41:58;;;;;;;3.85;1.65;;;3.00;88.30;;;;;;2065030;28;20138;-81
2020/12/05 01:42:58;;;;;;;3.20;1.63;;;2.90;88.20;;;;;;2065882;28;20037;-81
2020/12/05 01:43:59;;;;;;;2.55;1.50;;;2.90;88.30;;;;;;2056825;28;20440;-81
2020/12/05 01:45:00;;;;;;;2.92;1.38;;;2.90;88.30;;;;;;2057362;28;20046;-82
2020/12/05 01:46:03;;;;;;;3.30;1.60;;;2.90;88.30;;;;;;2065434;28;20170;-82
2020/12/05 01:47:04;;;;;;;5.20;1.42;;;2.90;88.30;;;;;;2065330;28;20022;-81
2020/12/05 01:48:05;;;;;;;2.65;1.40;;;2.90;88.30;;;;;;2062965;28;20511;-81
2020/12/05 01:49:14;;;;;;;2.78;1.58;;;2.90;88.30;;;;;;2057372;28;20492;-81
2020/12/05 01:50:16;;;;;;;2.72;1.30;;;2.90;88.40;;;;;;2067489;28;20030;-81
2020/12/05 01:51:17;;;;;;;4.20;1.75;;;2.90;88.30;;;;;;2063826;28;20019;-81
2020/12/05 01:52:19;;;;;;;3.05;1.65;;;2.90;88.40;;;;;;2063503;28;20108;-81
2020/12/05 01:53:20;;;;;;;3.47;1.83;;;2.90;88.40;;;;;;2064844;28;20438;-81
2020/12/05 01:54:21;;;;;;;3.17;1.50;;;2.90;88.40;;;;;;2053435;28;20039;-81
2020/12/05 01:55:21;;;;;;;2.97;1.52;;;2.90;88.40;;;;;;2049714;28;20401;-81
2020/12/05 01:56:25;;;;;;;4.38;1.80;;;2.90;89.00;;;;;;2049085;28;20031;-81
2020/12/05 01:57:25;;;;;;;3.38;1.52;;;2.90;88.50;;;;;;2057934;28;20066;-80
2020/12/05 01:58:27;;;;;;;3.05;1.55;;;2.90;88.50;;;;;;2064442;28;20030;-81
2020/12/05 01:59:28;;;;;;;4.18;1.70;;;2.90;88.40;;;;;;2056190;28;20141;-81
2020/12/05 02:00:29;;;;;;;3.45;1.70;;;2.90;88.40;;;;;;2055940;28;20125;-82
2020/12/05 02:01:29;;;;;;;3.45;1.55;;;2.90;88.40;;;;;;2063146;28;20038;-82
2020/12/05 02:02:30;;;;;;;4.65;1.75;;;2.90;88.40;;;;;;2064495;28;20129;-81
2020/12/05 02:03:31;;;;;;;4.28;1.70;;;2.90;88.40;;;;;;2058734;28;20092;-81
2020/12/05 02:04:50;;;;;;;3.80;1.60;;;2.90;88.40;;;;;;2064453;28;20026;-82
2020/12/05 02:06:12;;;;;;;3.35;1.50;;;2.90;88.40;;;;;;2062870;28;20019;-82
2020/12/05 02:07:46;;;;;;;4.00;1.50;;;2.90;88.40;;;;;;2062690;28;20045;-81
2020/12/05 02:08:59;;;;;;;3.40;1.63;;;2.90;88.30;;;;;;2059623;28;20042;-82
2020/12/05 02:10:02;;;;;;;3.90;1.40;;;3.00;88.30;;;;;;2058818;28;20054;-81
2020/12/05 02:11:03;;;;;;;2.88;1.45;;;2.90;88.20;;;;;;2054542;28;20539;-81
2020/12/05 02:12:27;;;;;;;2.83;1.48;;;3.00;88.30;;;;;;2041336;29;20028;-82
2020/12/05 02:13:35;;;;;;;3.53;1.63;;;3.00;88.30;;;;;;2058527;28;20493;-81
2020/12/05 02:14:37;;;;;;;3.28;1.50;;;3.00;88.20;;;;;;2058281;28;20031;-82
2020/12/05 02:15:39;;;;;;;3.15;1.55;;;3.00;88.20;;;;;;2057742;28;20034;-82
2020/12/05 02:16:40;;;;;;;5.32;1.90;;;3.00;88.20;;;;;;2058213;28;20118;-82
2020/12/05 02:17:51;;;;;;;4.07;1.75;;;3.00;88.20;;;;;;2063819;28;20050;-82
2020/12/05 02:18:53;;;;;;;4.15;1.67;;;3.00;88.20;;;;;;2064836;28;20607;-82
2020/12/05 02:19:55;;;;;;;3.13;1.45;;;3.00;88.20;;;;;;2060592;28;20035;-82
2020/12/05 02:21:00;;;;;;;3.85;1.80;;;3.00;88.20;;;;;;2059832;28;20050;-81
2020/12/05 02:22:02;;;;;;;4.63;1.75;;;3.10;88.30;;;;;;2064810;28;20030;-81
2020/12/05 02:23:16;;;;;;;3.85;1.80;;;3.00;88.90;;;;;;2064777;28;20026;-81
2020/12/05 02:24:17;;;;;;;3.70;2.00;;;3.00;88.90;;;;;;2065030;28;20518;-82
2020/12/05 02:25:18;;;;;;;4.85;2.00;;;3.00;88.20;;;;;;2065333;28;20031;-82
2020/12/05 02:26:19;;;;;;;5.28;2.13;;;3.00;88.20;;;;;;2064078;28;20026;-81
2020/12/05 02:27:22;;;;;;;5.55;2.17;;;3.00;88.20;;;;;;2064702;28;20041;-81
2020/12/05 02:28:24;;;;;;;5.80;1.95;;;3.10;88.30;;;;;;2057413;28;20129;-81
2020/12/05 02:29:25;;;;;;;6.78;2.35;;;3.10;88.30;;;;;;2060391;28;20033;-81
2020/12/05 02:30:25;;;;;;;5.97;2.60;;;3.10;88.40;;;;;;2057902;28;20385;-81
2020/12/05 02:31:26;;;;;;;5.18;2.42;;;3.10;88.40;;;;;;2063774;28;20034;-81
2020/12/05 02:32:27;;;;;;;6.22;2.42;;;3.10;88.40;;;;;;2062689;28;20037;-81
2020/12/05 02:33:28;;;;;;;7.65;2.53;;;3.10;88.40;;;;;;2057551;28;20063;-82
2020/12/05 02:34:29;;;;;;;6.50;3.08;;;3.10;88.40;;;;;;2057019;28;20489;-81
2020/12/05 02:35:30;;;;;;;5.00;2.55;;;3.10;88.40;;;;;;2057017;28;20077;-81
2020/12/05 02:36:35;;;;;;;7.75;3.35;;;3.10;88.40;;;;;;2057375;28;20023;-81
2020/12/05 02:37:41;;;;;;;5.38;2.50;;;3.10;88.50;;;;;;2063338;28;20130;-81
2020/12/05 02:38:46;;;;;;;5.60;2.45;;;3.10;88.50;;;;;;2064376;28;20026;-81
2020/12/05 02:39:48;;;;;;;5.93;2.47;;;3.10;88.50;;;;;;2057814;28;20033;-81
2020/12/05 02:40:50;;;;;;;6.68;2.70;;;3.10;88.50;;;;;;2058590;28;20018;-80
2020/12/05 02:41:51;;;;;;;6.88;2.63;;;3.20;88.50;;;;;;2056642;28;20033;-81
2020/12/05 02:42:53;;;;;;;7.15;2.72;;;3.20;88.40;;;;;;2058772;28;20113;-81
2020/12/05 02:43:53;;;;;;;5.22;2.40;;;3.20;88.40;;;;;;2060981;28;20061;-82
2020/12/05 02:44:54;;;;;;;5.72;2.38;;;3.20;88.40;;;;;;2056843;28;20057;-82
2020/12/05 02:45:55;;;;;;;5.60;2.20;;;3.20;88.50;;;;;;2056819;28;20117;-81
2020/12/05 02:47:00;;;;;;;4.47;2.38;;;3.20;88.50;;;;;;2057406;28;20122;-81
2020/12/05 02:48:01;;;;;;;4.78;2.35;;;3.10;88.40;;;;;;2059142;28;20508;-81
2020/12/05 02:49:02;;;;;;;5.28;2.45;;;3.20;88.50;;;;;;2059756;28;20125;-81
2020/12/05 02:50:04;;;;;;;5.28;2.17;;;3.20;88.50;;;;;;2056867;28;20037;-81
2020/12/05 02:51:04;;;;;;;4.78;2.08;;;3.20;88.50;;;;;;2054551;28;20125;-80
2020/12/05 02:52:05;;;;;;;4.22;2.05;;;3.20;88.50;;;;;;2064592;28;20038;-81
2020/12/05 02:53:06;;;;;;;4.20;2.08;;;3.20;88.50;;;;;;2065347;28;20022;-82
2020/12/05 02:54:07;;;;;;;4.13;2.05;;;3.20;88.50;;;;;;2065259;28;20520;-81
2020/12/05 02:55:08;;;;;;;4.32;2.03;;;3.20;88.50;;;;;;2059788;28;20105;-81
2020/12/05 02:56:14;;;;;;;4.53;2.20;;;3.20;88.50;;;;;;2068214;28;20033;-81
2020/12/05 02:57:15;;;;;;;4.43;2.00;;;3.20;88.60;;;;;;2066724;28;20022;-81
2020/12/05 02:58:15;;;;;;;3.40;1.98;;;3.20;88.60;;;;;;2064797;28;20535;-81
2020/12/05 02:59:16;;;;;;;3.63;1.80;;;3.30;88.60;;;;;;2064124;28;20034;-81
2020/12/05 03:00:16;;;;;;;4.07;2.00;;;3.20;88.60;;;;;;2055205;28;20489;-81
2020/12/05 03:01:17;;;;;;;4.90;2.13;;;3.20;88.50;;;;;;2055560;28;20023;-81
2020/12/05 03:02:18;;;;;;;3.28;1.85;;;3.30;88.60;;;;;;2057873;28;20129;-81
2020/12/05 03:03:18;;;;;;;3.67;1.73;;;3.20;88.50;;;;;;2072475;28;20036;-81
2020/12/05 03:04:19;;;;;;;4.30;1.88;;;3.30;88.60;;;;;;2059277;28;20041;-81
2020/12/05 03:05:20;;;;;;;4.28;2.00;;;3.30;88.60;;;;;;2065025;28;20496;-81
2020/12/05 03:06:21;;;;;;;3.40;1.77;;;3.30;88.60;;;;;;2059022;28;20085;-81
2020/12/05 03:07:21;;;;;;;3.70;1.85;;;3.30;88.60;;;;;;2064757;28;20125;-81
2020/12/05 03:08:22;;;;;;;3.20;1.70;;;3.30;88.60;;;;;;2072805;28;20040;-81
2020/12/05 03:09:22;;;;;;;4.85;2.15;;;3.30;88.60;;;;;;2072312;28;20105;-81
2020/12/05 03:10:23;;;;;;;4.45;2.00;;;3.30;88.60;;;;;;2064554;28;20456;-82
2020/12/05 03:11:24;;;;;;;4.10;1.90;;;3.30;88.60;;;;;;2063609;28;20022;-81
2020/12/05 03:12:24;;;;;;;3.45;1.88;;;3.30;88.60;;;;;;2054865;28;20027;-82
2020/12/05 03:13:25;;;;;;;3.63;1.90;;;3.30;88.60;;;;;;2048601;28;20430;-81
2020/12/05 03:14:26;;;;;;;3.78;1.50;;;3.30;88.60;;;;;;2058737;28;20068;-81
2020/12/05 03:15:26;;;;;;;3.10;1.73;;;3.40;88.70;;;;;;2064789;28;20035;-81
2020/12/05 03:16:27;;;;;;;3.58;1.80;;;3.30;88.60;;;;;;2060580;28;20408;-81
2020/12/05 03:17:28;;;;;;;6.57;1.90;;;3.30;88.60;;;;;;2062163;28;20398;-81
2020/12/05 03:18:28;;;;;;;3.63;1.80;;;3.30;88.60;;;;;;2065129;28;20510;-81
2020/12/05 03:19:29;;;;;;;2.72;1.60;;;3.30;88.60;;;;;;2063714;28;20034;-81
2020/12/05 03:20:29;;;;;;;3.45;1.63;;;3.30;88.60;;;;;;2064305;28;20038;-81
2020/12/05 03:21:30;;;;;;;3.40;1.73;;;3.30;88.60;;;;;;2062359;28;20121;-81
2020/12/05 03:22:31;;;;;;;3.33;1.85;;;3.30;88.70;;;;;;2063152;28;20436;-81
2020/12/05 03:23:31;;;;;;;3.78;1.67;;;3.30;88.70;;;;;;2056485;28;20623;-81
2020/12/05 03:24:32;;;;;;;3.58;1.65;;;3.30;88.70;;;;;;2064657;28;20168;-81
2020/12/05 03:25:33;;;;;;;4.57;1.90;;;3.30;88.70;;;;;;2064591;28;20026;-81
2020/12/05 03:26:33;;;;;;;3.28;1.75;;;3.20;88.70;;;;;;2062126;28;20034;-81
2020/12/05 03:27:34;;;;;;;3.50;1.70;;;3.20;88.80;;;;;;2057332;28;20023;-81
2020/12/05 03:28:36;;;;;;;4.07;1.80;;;3.20;88.80;;;;;;2058358;28;20130;-81
2020/12/05 03:29:39;;;;;;;3.03;1.75;;;3.30;88.90;;;;;;2055295;28;20476;-80
2020/12/05 03:30:39;;;;;;;2.95;1.85;;;3.30;88.90;;;;;;2058781;28;20096;-81
2020/12/05 03:32:03;;;;;;;4.03;1.90;;;3.30;88.90;;;;;;2064244;28;20169;-81
2020/12/05 03:33:03;;;;;;;3.25;1.65;;;3.30;88.80;;;;;;2060958;28;20046;-81
2020/12/05 03:34:05;;;;;;;3.28;1.80;;;3.30;88.80;;;;;;2064255;28;20050;-81
2020/12/05 03:35:06;;;;;;;3.53;1.63;;;3.30;88.80;;;;;;2057007;28;20117;-81
2020/12/05 03:36:06;;;;;;;2.67;1.50;;;3.30;88.80;;;;;;2056889;28;20034;-81
2020/12/05 03:37:11;;;;;;;3.13;1.88;;;3.30;88.80;;;;;;2056356;28;20487;-81
2020/12/05 03:38:11;;;;;;;3.40;1.75;;;3.20;88.80;;;;;;2056381;28;20137;-81
2020/12/05 03:39:12;;;;;;;4.45;1.80;;;3.30;88.80;;;;;;2057859;28;20664;-81
2020/12/05 03:40:13;;;;;;;3.42;1.63;;;3.30;88.80;;;;;;2058629;28;20030;-81
2020/12/05 03:41:14;;;;;;;3.33;1.42;;;3.30;88.80;;;;;;2063552;28;20030;-81
2020/12/05 03:42:14;;;;;;;3.65;1.80;;;3.30;88.80;;;;;;2064467;28;20022;-81
2020/12/05 03:43:15;;;;;;;4.03;1.75;;;3.30;88.80;;;;;;2061581;28;20117;-81
2020/12/05 03:44:15;;;;;;;3.35;1.75;;;3.30;88.80;;;;;;2064045;28;20030;-81
2020/12/05 03:45:16;;;;;;;3.38;1.75;;;3.30;88.80;;;;;;2059812;28;20525;-81
2020/12/05 03:46:17;;;;;;;3.50;1.90;;;3.20;88.70;;;;;;2056493;28;20038;-81
2020/12/05 03:47:18;;;;;;;4.90;2.10;;;3.30;88.80;;;;;;2056636;28;20027;-81
2020/12/05 03:48:19;;;;;;;3.75;2.00;;;3.30;88.80;;;;;;2064980;28;20350;-82
2020/12/05 03:49:20;;;;;;;3.67;2.03;;;3.30;88.70;;;;;;2065072;28;20031;-81
2020/12/05 03:50:20;;;;;;;5.78;1.98;;;3.30;88.70;;;;;;2063428;28;20038;-81
2020/12/05 03:51:21;;;;;;;4.13;1.95;;;3.30;88.70;;;;;;2064599;28;20038;-81
2020/12/05 03:52:22;;;;;;;3.22;1.88;;;3.30;88.70;;;;;;2063888;28;20026;-81
2020/12/05 03:53:22;;;;;;;3.33;1.65;;;3.30;88.70;;;;;;2063627;28;20480;-81
2020/12/05 03:54:23;;;;;;;4.50;1.83;;;3.30;88.70;;;;;;2064143;28;20132;-81
2020/12/05 03:55:23;;;;;;;3.95;1.70;;;3.30;88.70;;;;;;2056490;28;20050;-81
2020/12/05 03:56:24;;;;;;;4.50;2.00;;;3.30;88.70;;;;;;2050749;28;20027;-81
2020/12/05 03:57:25;;;;;;;4.28;1.92;;;3.30;88.70;;;;;;2047328;29;20035;-81
2020/12/05 03:58:25;;;;;;;3.55;2.20;;;3.30;88.70;;;;;;2056523;28;20032;-81
2020/12/05 03:59:26;;;;;;;3.28;1.70;;;3.30;88.70;;;;;;2057620;28;20041;-81
2020/12/05 04:00:28;;;;;;;4.45;2.30;;;3.30;88.70;;;;;;2063621;28;20469;-81
2020/12/05 04:01:28;;;;;;;4.25;1.83;;;3.20;88.60;;;;;;2064526;28;20022;-81
2020/12/05 04:02:29;;;;;;;4.07;1.90;;;3.20;88.70;;;;;;2068046;28;20034;-81
2020/12/05 04:03:29;;;;;;;3.28;1.73;;;3.20;88.70;;;;;;2056359;28;20026;-81
2020/12/05 04:04:30;;;;;;;5.10;2.00;;;3.20;88.70;;;;;;2060693;28;20047;-81
2020/12/05 04:05:31;;;;;;;3.72;1.80;;;3.20;88.80;;;;;;2071169;28;20054;-81
2020/12/05 04:06:31;;;;;;;4.20;2.20;;;3.20;88.80;;;;;;2064486;28;20030;-81
2020/12/05 04:07:32;;;;;;;3.15;1.77;;;3.20;88.80;;;;;;2052111;28;20583;-81
2020/12/05 04:08:32;;;;;;;3.58;1.95;;;3.20;88.90;;;;;;2064225;28;20035;-81
2020/12/05 04:09:33;;;;;;;4.47;1.80;;;3.20;88.90;;;;;;2056339;28;20031;-81
2020/12/05 04:10:34;;;;;;;3.35;1.90;;;3.20;88.90;;;;;;2068252;28;20464;-81
2020/12/05 04:11:40;;;;;;;3.47;2.20;;;3.10;88.90;;;;;;2066024;28;20060;-81
2020/12/05 04:12:41;;;;;;;3.80;1.80;;;3.10;88.90;;;;;;2064397;28;20050;-81
2020/12/05 04:13:41;;;;;;;3.65;1.85;;;3.10;88.90;;;;;;2062821;28;20481;-81
2020/12/05 04:14:42;;;;;;;3.90;1.92;;;3.10;88.90;;;;;;2060418;28;20158;-80
2020/12/05 04:15:43;;;;;;;3.70;1.90;;;3.10;89.00;;;;;;2074144;28;20447;-81
2020/12/05 04:16:43;;;;;;;3.55;2.00;;;3.10;89.10;;;;;;2064245;28;20088;-81
2020/12/05 04:17:44;;;;;;;3.90;1.77;;;3.00;89.00;;;;;;2062997;28;20045;-81
2020/12/05 04:18:44;;;;;;;3.33;1.80;;;3.00;89.10;;;;;;2063353;28;20580;-80
2020/12/05 04:19:48;;;;;;;4.03;2.30;;;3.00;89.20;;;;;;2053648;28;20031;-81
2020/12/05 04:20:49;;;;;;;4.40;2.03;;;3.00;89.20;;;;;;2060331;28;20409;-81
2020/12/05 04:21:50;;;;;;;3.22;1.95;;;3.00;89.30;;;;;;2062044;28;20026;-81
2020/12/05 04:22:54;;;;;;;3.55;2.10;;;3.00;89.30;;;;;;2066646;28;20120;-82
2020/12/05 04:23:55;;;;;;;4.10;2.03;;;3.00;89.40;;;;;;2066032;28;20472;-81
2020/12/05 04:24:56;;;;;;;3.92;2.25;;;3.00;89.40;;;;;;2065984;28;20121;-81
2020/12/05 04:25:57;;;;;;;3.78;2.20;;;3.00;89.40;;;;;;2065715;28;20056;-81
2020/12/05 04:26:57;;;;;;;3.42;1.88;;;3.00;89.40;;;;;;2065945;28;20046;-81
2020/12/05 04:27:58;;;;;;;4.13;2.10;;;3.00;89.40;;;;;;2061879;28;20027;-81
2020/12/05 04:28:58;;;;;;;4.88;2.10;;;3.00;89.40;;;;;;2066608;28;20061;-81
2020/12/05 04:29:59;;;;;;;3.22;1.92;;;3.00;89.40;;;;;;2065531;28;20027;-81
2020/12/05 04:31:00;;;;;;;4.93;2.00;;;3.00;89.50;;;;;;2058861;28;20039;-81
2020/12/05 04:32:00;;;;;;;3.53;1.95;;;3.00;89.40;;;;;;2058440;28;20031;-81
2020/12/05 04:33:01;;;;;;;3.78;2.05;;;3.00;89.40;;;;;;2057967;28;20057;-81
2020/12/05 04:34:02;;;;;;;3.92;2.13;;;2.90;89.40;;;;;;2062868;28;20519;-80
2020/12/05 04:35:02;;;;;;;3.70;2.28;;;2.90;89.40;;;;;;2065443;28;20447;-81
2020/12/05 04:36:03;;;;;;;3.88;2.10;;;2.90;89.40;;;;;;2065671;28;20121;-81
2020/12/05 04:37:04;;;;;;;5.28;2.10;;;2.90;89.40;;;;;;2065423;28;20041;-80
2020/12/05 04:38:04;;;;;;;3.58;2.17;;;2.90;89.50;;;;;;2064662;28;20074;-81
2020/12/05 04:39:05;;;;;;;3.75;2.25;;;2.90;89.50;;;;;;2065133;28;20023;-81
2020/12/05 04:40:06;;;;;;;4.30;1.98;;;2.90;89.50;;;;;;2065889;28;20493;-81
2020/12/05 04:41:07;;;;;;;3.58;2.03;;;2.90;90.00;;;;;;2065915;28;20117;-81
2020/12/05 04:42:07;;;;;;;3.63;1.95;;;2.90;89.60;;;;;;2066092;28;20041;-81
2020/12/05 04:43:08;;;;;;;3.58;2.00;;;2.90;89.60;;;;;;2057863;28;20057;-82
2020/12/05 04:44:09;;;;;;;2.97;1.98;;;2.90;89.60;;;;;;2063696;28;20516;-81
2020/12/05 04:45:11;;;;;;;3.67;2.00;;;2.90;89.60;;;;;;2065600;28;20034;-81
2020/12/05 04:46:12;;;;;;;3.55;1.80;;;2.90;89.70;;;;;;2065028;28;20029;-81
2020/12/05 04:47:16;;;;;;;3.72;1.90;;;2.90;90.10;;;;;;2060892;28;20034;-81
2020/12/05 04:48:17;;;;;;;3.53;2.08;;;2.80;89.70;;;;;;2065450;28;20022;-81
2020/12/05 04:49:20;;;;;;;4.40;1.90;;;2.80;89.70;;;;;;2065937;28;20555;-81
2020/12/05 04:50:23;;;;;;;4.05;2.40;;;2.80;89.70;;;;;;2064703;28;20030;-81
2020/12/05 04:51:30;;;;;;;4.32;2.10;;;2.80;89.80;;;;;;2065329;28;20026;-81
2020/12/05 04:52:39;;;;;;;3.28;1.58;;;2.80;89.80;;;;;;2065327;28;20053;-81
2020/12/05 04:53:45;;;;;;;2.93;1.97;;;2.80;89.80;;;;;;2065249;28;20508;-81
2020/12/05 04:54:50;;;;;;;3.97;2.22;;;2.80;89.80;;;;;;2066440;28;20266;-81
2020/12/05 04:55:52;;;;;;;3.20;2.00;;;2.80;89.80;;;;;;2065427;28;20022;-81
2020/12/05 04:56:56;;;;;;;4.65;2.33;;;2.80;89.80;;;;;;2057720;28;20093;-81
2020/12/05 04:57:58;;;;;;;3.70;2.10;;;2.70;89.70;;;;;;2049659;28;20405;-81
2020/12/05 04:59:03;;;;;;;3.42;1.88;;;2.80;89.80;;;;;;2049878;28;20034;-81
2020/12/05 05:00:05;;;;;;;3.75;2.17;;;2.70;89.80;;;;;;2059166;28;20201;-81
2020/12/05 05:01:06;;;;;;;4.32;2.30;;;2.70;89.80;;;;;;2064694;28;20067;-81
2020/12/05 05:02:10;;;;;;;4.45;2.22;;;2.70;89.80;;;;;;2057032;28;20052;-81
2020/12/05 05:03:15;;;;;;;3.75;2.28;;;2.70;89.90;;;;;;2065789;28;20026;-81
2020/12/05 05:04:16;;;;;;;3.85;2.00;;;2.70;89.90;;;;;;2067562;28;20030;-81
2020/12/05 05:05:17;;;;;;;3.78;2.08;;;2.70;90.00;;;;;;2072249;28;20026;-81
2020/12/05 05:06:21;;;;;;;4.38;2.00;;;2.70;90.00;;;;;;2064176;28;20030;-81
2020/12/05 05:07:22;;;;;;;4.43;2.13;;;2.70;90.00;;;;;;2057297;28;20045;-81
2020/12/05 05:08:24;;;;;;;3.80;1.90;;;2.70;90.00;;;;;;2065659;28;20044;-81
2020/12/05 05:09:25;;;;;;;3.42;2.05;;;2.60;89.90;;;;;;2065104;28;20485;-81
2020/12/05 05:10:31;;;;;;;5.25;2.40;;;2.60;90.00;;;;;;2060116;28;20038;-80
2020/12/05 05:11:33;;;;;;;6.53;2.47;;;2.60;90.00;;;;;;2061806;28;20022;-81
2020/12/05 05:12:36;;;;;;;3.97;2.30;;;2.60;90.20;;;;;;2057406;28;20041;-81
2020/12/05 05:13:49;;;;;;;3.78;2.22;;;2.60;90.00;;;;;;2060055;28;20035;-81
2020/12/05 05:14:49;;;;;;;3.40;2.08;;;2.60;90.00;;;;;;2061993;28;20034;-81
2020/12/05 05:15:50;;;;;;;3.60;2.00;;;2.60;90.00;;;;;;2066267;28;20400;-81
2020/12/05 05:17:01;;;;;;;3.90;1.95;;;2.50;90.00;;;;;;2065455;28;20034;-80
2020/12/05 05:18:03;;;;;;;4.35;2.17;;;2.50;90.00;;;;;;2063918;28;20399;-81
2020/12/05 05:19:23;;;;;;;3.75;2.40;;;2.50;90.30;;;;;;2059796;28;20023;-81
2020/12/05 05:20:24;;;;;;;4.45;2.28;;;2.50;90.00;;;;;;2060465;28;20061;-80
2020/12/05 05:21:40;;;;;;;4.05;2.20;;;2.50;90.00;;;;;;2062185;28;20082;-80
2020/12/05 05:22:41;;;;;;;4.82;2.20;;;2.50;90.00;;;;;;2068262;28;20500;-81
2020/12/05 05:23:44;;;;;;;4.40;2.22;;;2.50;90.10;;;;;;2060077;28;20110;-81
2020/12/05 05:25:00;;;;;;;4.10;2.20;;;2.50;90.10;;;;;;2057408;28;20023;-80
2020/12/05 05:26:02;;;;;;;3.70;2.20;;;2.40;90.10;;;;;;2066282;28;20485;-80
2020/12/05 05:27:08;;;;;;;4.60;2.03;;;2.40;90.10;;;;;;2065574;28;20108;-80
2020/12/05 05:28:08;;;;;;;3.90;2.10;;;2.40;90.10;;;;;;2064711;28;20073;-80